sensor_id;sensor_type;location;lat;lon;timestamp;P1;durP1;ratioP1;P2;durP2;ratioP2
46110;SDS011;31849;55.992;37.252;2024-01-15T00:04:13;13.10;;;6.53;;
46110;SDS011;31849;55.992;37.252;2024-01-15T00:09:17;14.93;;;7.83;;
46110;SDS011;31849;55.992;37.252;2024-01-15T00:14:22;11.53;;;5.47;;
46110;SDS011;31849;55.992;37.252;2024-01-15T00:19:27;16.42;;;7.18;;
46110;SDS011;31849;55.992;37.252;2024-01-15T00:24:34;14.00;;;6.60;;
46110;SDS011;31849;55.992;37.252;2024-01-15T00:29:38;11.85;;;5.97;;
46110;SDS011;31849;55.992;37.252;2024-01-15T00:34:43;11.98;;;5.90;;
46110;SDS011;31849;55.992;37.252;2024-01-15T00:39:47;15.20;;;7.60;;
46110;SDS011;31849;55.992;37.252;2024-01-15T00:44:51;15.10;;;7.72;;
46110;SDS011;31849;55.992;37.252;2024-01-15T00:49:57;20.40;;;8.37;;
46110;SDS011;31849;55.992;37.252;2024-01-15T00:55:01;16.83;;;8.77;;
46110;SDS011;31849;55.992;37.252;2024-01-15T01:00:05;15.02;;;7.68;;
46110;SDS011;31849;55.992;37.252;2024-01-15T01:05:12;14.90;;;7.63;;
46110;SDS011;31849;55.992;37.252;2024-01-15T01:10:16;16.80;;;8.57;;
46110;SDS011;31849;55.992;37.252;2024-01-15T01:15:20;18.37;;;8.90;;
46110;SDS011;31849;55.992;37.252;2024-01-15T01:20:25;16.67;;;8.32;;
46110;SDS011;31849;55.992;37.252;2024-01-15T01:25:29;19.50;;;9.40;;
46110;SDS011;31849;55.992;37.252;2024-01-15T01:30:33;16.43;;;8.67;;
46110;SDS011;31849;55.992;37.252;2024-01-15T01:35:38;16.92;;;8.25;;
46110;SDS011;31849;55.992;37.252;2024-01-15T01:40:42;15.43;;;7.63;;
46110;SDS011;31849;55.992;37.252;2024-01-15T01:45:46;20.90;;;9.00;;
46110;SDS011;31849;55.992;37.252;2024-01-15T01:50:51;19.00;;;10.30;;
46110;SDS011;31849;55.992;37.252;2024-01-15T01:55:56;19.57;;;9.77;;
46110;SDS011;31849;55.992;37.252;2024-01-15T02:01:01;18.08;;;8.20;;
46110;SDS011;31849;55.992;37.252;2024-01-15T02:06:06;21.90;;;9.90;;
46110;SDS011;31849;55.992;37.252;2024-01-15T02:11:11;18.63;;;10.43;;
46110;SDS011;31849;55.992;37.252;2024-01-15T02:16:14;22.60;;;10.63;;
46110;SDS011;31849;55.992;37.252;2024-01-15T02:21:21;19.47;;;8.13;;
46110;SDS011;31849;55.992;37.252;2024-01-15T02:26:26;16.27;;;8.30;;
46110;SDS011;31849;55.992;37.252;2024-01-15T02:31:30;16.83;;;9.53;;
46110;SDS011;31849;55.992;37.252;2024-01-15T02:36:34;18.55;;;9.43;;
46110;SDS011;31849;55.992;37.252;2024-01-15T02:41:39;23.23;;;11.07;;
46110;SDS011;31849;55.992;37.252;2024-01-15T02:46:42;20.27;;;10.13;;
46110;SDS011;31849;55.992;37.252;2024-01-15T02:51:46;18.67;;;9.93;;
46110;SDS011;31849;55.992;37.252;2024-01-15T02:56:51;20.48;;;10.52;;
46110;SDS011;31849;55.992;37.252;2024-01-15T03:01:55;19.47;;;10.13;;
46110;SDS011;31849;55.992;37.252;2024-01-15T03:06:59;21.70;;;11.50;;
46110;SDS011;31849;55.992;37.252;2024-01-15T03:12:04;16.80;;;8.67;;
46110;SDS011;31849;55.992;37.252;2024-01-15T03:17:09;19.33;;;9.77;;
46110;SDS011;31849;55.992;37.252;2024-01-15T03:22:14;19.48;;;10.20;;
46110;SDS011;31849;55.992;37.252;2024-01-15T03:27:19;19.43;;;10.27;;
46110;SDS011;31849;55.992;37.252;2024-01-15T03:32:23;17.50;;;8.60;;
46110;SDS011;31849;55.992;37.252;2024-01-15T03:37:26;18.10;;;9.63;;
46110;SDS011;31849;55.992;37.252;2024-01-15T03:42:32;15.33;;;8.80;;
46110;SDS011;31849;55.992;37.252;2024-01-15T03:47:35;21.10;;;11.10;;
46110;SDS011;31849;55.992;37.252;2024-01-15T03:52:39;19.63;;;10.30;;
46110;SDS011;31849;55.992;37.252;2024-01-15T03:57:44;20.67;;;10.17;;
46110;SDS011;31849;55.992;37.252;2024-01-15T04:02:48;24.50;;;12.77;;
46110;SDS011;31849;55.992;37.252;2024-01-15T04:07:52;20.60;;;10.93;;
46110;SDS011;31849;55.992;37.252;2024-01-15T04:12:57;20.50;;;11.63;;
46110;SDS011;31849;55.992;37.252;2024-01-15T04:18:02;23.73;;;12.43;;
46110;SDS011;31849;55.992;37.252;2024-01-15T04:23:06;23.05;;;12.70;;
46110;SDS011;31849;55.992;37.252;2024-01-15T04:28:11;21.40;;;11.47;;
46110;SDS011;31849;55.992;37.252;2024-01-15T04:33:15;21.83;;;11.37;;
46110;SDS011;31849;55.992;37.252;2024-01-15T04:38:19;26.13;;;12.30;;
46110;SDS011;31849;55.992;37.252;2024-01-15T04:43:24;17.50;;;9.40;;
46110;SDS011;31849;55.992;37.252;2024-01-15T04:48:28;24.43;;;12.37;;
46110;SDS011;31849;55.992;37.252;2024-01-15T04:53:31;25.27;;;11.47;;
46110;SDS011;31849;55.992;37.252;2024-01-15T04:58:37;20.67;;;10.50;;
46110;SDS011;31849;55.992;37.252;2024-01-15T05:03:41;21.07;;;8.97;;
46110;SDS011;31849;55.992;37.252;2024-01-15T05:08:45;20.27;;;10.55;;
46110;SDS011;31849;55.992;37.252;2024-01-15T05:13:50;22.27;;;11.70;;
46110;SDS011;31849;55.992;37.252;2024-01-15T05:18:54;25.00;;;12.20;;
46110;SDS011;31849;55.992;37.252;2024-01-15T05:23:58;26.50;;;13.30;;
46110;SDS011;31849;55.992;37.252;2024-01-15T05:29:03;28.67;;;12.85;;
46110;SDS011;31849;55.992;37.252;2024-01-15T05:34:07;23.70;;;12.50;;
46110;SDS011;31849;55.992;37.252;2024-01-15T05:39:11;24.80;;;12.67;;
46110;SDS011;31849;55.992;37.252;2024-01-15T05:44:16;23.87;;;12.20;;
46110;SDS011;31849;55.992;37.252;2024-01-15T05:49:20;30.00;;;14.77;;
46110;SDS011;31849;55.992;37.252;2024-01-15T05:54:24;23.38;;;11.95;;
46110;SDS011;31849;55.992;37.252;2024-01-15T05:59:29;21.50;;;11.93;;
46110;SDS011;31849;55.992;37.252;2024-01-15T06:04:35;25.00;;;12.57;;
46110;SDS011;31849;55.992;37.252;2024-01-15T06:09:39;25.63;;;13.13;;
46110;SDS011;31849;55.992;37.252;2024-01-15T06:14:45;30.48;;;16.63;;
46110;SDS011;31849;55.992;37.252;2024-01-15T06:19:49;29.00;;;14.10;;
46110;SDS011;31849;55.992;37.252;2024-01-15T06:24:53;27.05;;;15.15;;
46110;SDS011;31849;55.992;37.252;2024-01-15T06:29:58;34.60;;;15.53;;
46110;SDS011;31849;55.992;37.252;2024-01-15T06:35:05;28.33;;;14.77;;
46110;SDS011;31849;55.992;37.252;2024-01-15T06:40:09;27.75;;;14.10;;
46110;SDS011;31849;55.992;37.252;2024-01-15T06:45:15;27.83;;;14.67;;
46110;SDS011;31849;55.992;37.252;2024-01-15T06:50:18;26.13;;;14.53;;
46110;SDS011;31849;55.992;37.252;2024-01-15T06:55:22;24.57;;;12.30;;
46110;SDS011;31849;55.992;37.252;2024-01-15T07:00:27;28.17;;;14.10;;
46110;SDS011;31849;55.992;37.252;2024-01-15T07:05:31;23.97;;;12.27;;
46110;SDS011;31849;55.992;37.252;2024-01-15T07:10:36;25.83;;;13.43;;
46110;SDS011;31849;55.992;37.252;2024-01-15T07:15:41;25.77;;;14.27;;
46110;SDS011;31849;55.992;37.252;2024-01-15T07:20:45;27.25;;;14.48;;
46110;SDS011;31849;55.992;37.252;2024-01-15T07:25:48;24.33;;;12.60;;
46110;SDS011;31849;55.992;37.252;2024-01-15T07:30:53;22.58;;;12.43;;
46110;SDS011;31849;55.992;37.252;2024-01-15T07:35:57;24.00;;;13.10;;
46110;SDS011;31849;55.992;37.252;2024-01-15T07:41:04;23.38;;;12.48;;
46110;SDS011;31849;55.992;37.252;2024-01-15T07:46:09;25.67;;;13.10;;
46110;SDS011;31849;55.992;37.252;2024-01-15T07:51:13;22.58;;;11.93;;
46110;SDS011;31849;55.992;37.252;2024-01-15T07:56:17;18.13;;;10.07;;
46110;SDS011;31849;55.992;37.252;2024-01-15T08:01:22;19.80;;;11.80;;
46110;SDS011;31849;55.992;37.252;2024-01-15T08:06:26;19.58;;;11.52;;
46110;SDS011;31849;55.992;37.252;2024-01-15T08:11:30;20.63;;;11.70;;
46110;SDS011;31849;55.992;37.252;2024-01-15T08:16:36;24.83;;;12.43;;
46110;SDS011;31849;55.992;37.252;2024-01-15T08:21:39;23.45;;;11.25;;
46110;SDS011;31849;55.992;37.252;2024-01-15T08:26:43;21.13;;;12.37;;
46110;SDS011;31849;55.992;37.252;2024-01-15T08:31:49;19.35;;;10.93;;
46110;SDS011;31849;55.992;37.252;2024-01-15T08:36:54;18.48;;;11.35;;
46110;SDS011;31849;55.992;37.252;2024-01-15T08:41:57;19.27;;;10.67;;
46110;SDS011;31849;55.992;37.252;2024-01-15T08:47:03;16.23;;;9.82;;
46110;SDS011;31849;55.992;37.252;2024-01-15T08:52:07;20.42;;;11.73;;
46110;SDS011;31849;55.992;37.252;2024-01-15T08:57:10;19.35;;;11.60;;
46110;SDS011;31849;55.992;37.252;2024-01-15T09:02:16;19.63;;;11.57;;
46110;SDS011;31849;55.992;37.252;2024-01-15T09:07:19;19.52;;;10.88;;
46110;SDS011;31849;55.992;37.252;2024-01-15T09:12:23;19.60;;;11.32;;
46110;SDS011;31849;55.992;37.252;2024-01-15T09:17:28;18.90;;;10.93;;
46110;SDS011;31849;55.992;37.252;2024-01-15T09:22:33;14.05;;;8.32;;
46110;SDS011;31849;55.992;37.252;2024-01-15T09:27:36;19.33;;;10.05;;
46110;SDS011;31849;55.992;37.252;2024-01-15T09:32:42;16.17;;;9.57;;
46110;SDS011;31849;55.992;37.252;2024-01-15T09:37:46;21.30;;;11.52;;
46110;SDS011;31849;55.992;37.252;2024-01-15T09:42:49;19.05;;;10.73;;
46110;SDS011;31849;55.992;37.252;2024-01-15T09:47:56;18.77;;;10.48;;
46110;SDS011;31849;55.992;37.252;2024-01-15T09:53:00;17.42;;;9.45;;
46110;SDS011;31849;55.992;37.252;2024-01-15T09:58:06;15.20;;;8.63;;
46110;SDS011;31849;55.992;37.252;2024-01-15T10:03:11;16.93;;;9.50;;
46110;SDS011;31849;55.992;37.252;2024-01-15T10:08:16;17.25;;;10.25;;
46110;SDS011;31849;55.992;37.252;2024-01-15T10:13:20;17.05;;;9.45;;
46110;SDS011;31849;55.992;37.252;2024-01-15T10:28:53;19.40;;;11.43;;
46110;SDS011;31849;55.992;37.252;2024-01-15T10:34:01;19.55;;;10.13;;
46110;SDS011;31849;55.992;37.252;2024-01-15T10:39:15;17.27;;;9.82;;
46110;SDS011;31849;55.992;37.252;2024-01-15T10:44:19;17.93;;;10.93;;
46110;SDS011;31849;55.992;37.252;2024-01-15T10:49:24;20.27;;;10.88;;
46110;SDS011;31849;55.992;37.252;2024-01-15T10:54:34;17.30;;;9.63;;
46110;SDS011;31849;55.992;37.252;2024-01-15T10:59:40;20.25;;;10.85;;
46110;SDS011;31849;55.992;37.252;2024-01-15T11:04:47;17.27;;;10.23;;
46110;SDS011;31849;55.992;37.252;2024-01-15T11:09:51;15.98;;;9.45;;
46110;SDS011;31849;55.992;37.252;2024-01-15T11:15:00;16.50;;;9.73;;
46110;SDS011;31849;55.992;37.252;2024-01-15T11:20:08;20.30;;;10.13;;
46110;SDS011;31849;55.992;37.252;2024-01-15T11:25:12;18.15;;;9.18;;
46110;SDS011;31849;55.992;37.252;2024-01-15T11:35:23;18.90;;;10.65;;
46110;SDS011;31849;55.992;37.252;2024-01-15T11:40:53;18.08;;;9.40;;
46110;SDS011;31849;55.992;37.252;2024-01-15T11:45:57;16.92;;;9.40;;
46110;SDS011;31849;55.992;37.252;2024-01-15T11:51:07;17.35;;;10.15;;
46110;SDS011;31849;55.992;37.252;2024-01-15T11:56:14;20.67;;;10.35;;
46110;SDS011;31849;55.992;37.252;2024-01-15T12:01:19;17.50;;;8.55;;
46110;SDS011;31849;55.992;37.252;2024-01-15T12:06:26;19.52;;;9.15;;
46110;SDS011;31849;55.992;37.252;2024-01-15T12:11:30;18.90;;;10.98;;
46110;SDS011;31849;55.992;37.252;2024-01-15T12:16:35;18.92;;;10.77;;
46110;SDS011;31849;55.992;37.252;2024-01-15T12:21:41;17.20;;;10.23;;
46110;SDS011;31849;55.992;37.252;2024-01-15T12:26:45;20.90;;;11.75;;
46110;SDS011;31849;55.992;37.252;2024-01-15T12:31:48;20.50;;;11.52;;
46110;SDS011;31849;55.992;37.252;2024-01-15T12:36:55;17.48;;;10.57;;
46110;SDS011;31849;55.992;37.252;2024-01-15T12:42:00;19.48;;;11.38;;
46110;SDS011;31849;55.992;37.252;2024-01-15T12:47:04;21.50;;;11.65;;
46110;SDS011;31849;55.992;37.252;2024-01-15T12:52:10;21.57;;;11.50;;
46110;SDS011;31849;55.992;37.252;2024-01-15T12:57:14;22.98;;;11.95;;
46110;SDS011;31849;55.992;37.252;2024-01-15T13:02:18;19.88;;;11.35;;
46110;SDS011;31849;55.992;37.252;2024-01-15T13:07:23;20.33;;;11.10;;
46110;SDS011;31849;55.992;37.252;2024-01-15T13:12:27;19.90;;;11.43;;
46110;SDS011;31849;55.992;37.252;2024-01-15T13:17:31;20.23;;;11.73;;
46110;SDS011;31849;55.992;37.252;2024-01-15T13:22:36;19.83;;;11.23;;
46110;SDS011;31849;55.992;37.252;2024-01-15T13:27:42;19.63;;;11.73;;
46110;SDS011;31849;55.992;37.252;2024-01-15T13:32:46;17.30;;;10.50;;
46110;SDS011;31849;55.992;37.252;2024-01-15T13:37:51;21.35;;;12.45;;
46110;SDS011;31849;55.992;37.252;2024-01-15T13:42:55;22.88;;;13.07;;
46110;SDS011;31849;55.992;37.252;2024-01-15T13:47:59;22.73;;;12.37;;
46110;SDS011;31849;55.992;37.252;2024-01-15T13:53:05;22.43;;;12.33;;
46110;SDS011;31849;55.992;37.252;2024-01-15T13:58:11;22.50;;;12.32;;
46110;SDS011;31849;55.992;37.252;2024-01-15T14:03:15;23.75;;;13.40;;
46110;SDS011;31849;55.992;37.252;2024-01-15T14:08:20;21.83;;;13.13;;
46110;SDS011;31849;55.992;37.252;2024-01-15T14:13:24;22.58;;;12.82;;
46110;SDS011;31849;55.992;37.252;2024-01-15T14:18:28;23.65;;;13.48;;
46110;SDS011;31849;55.992;37.252;2024-01-15T14:23:37;25.48;;;13.50;;
46110;SDS011;31849;55.992;37.252;2024-01-15T14:28:40;24.38;;;13.40;;
46110;SDS011;31849;55.992;37.252;2024-01-15T14:33:44;26.40;;;13.43;;
46110;SDS011;31849;55.992;37.252;2024-01-15T14:38:49;23.70;;;13.40;;
46110;SDS011;31849;55.992;37.252;2024-01-15T14:43:53;25.17;;;14.48;;
46110;SDS011;31849;55.992;37.252;2024-01-15T14:48:59;22.33;;;12.77;;
46110;SDS011;31849;55.992;37.252;2024-01-15T14:54:04;27.00;;;14.83;;
46110;SDS011;31849;55.992;37.252;2024-01-15T14:59:08;26.52;;;15.32;;
46110;SDS011;31849;55.992;37.252;2024-01-15T15:04:12;25.93;;;13.47;;
46110;SDS011;31849;55.992;37.252;2024-01-15T15:09:18;24.77;;;13.33;;
46110;SDS011;31849;55.992;37.252;2024-01-15T15:14:22;23.13;;;12.15;;
46110;SDS011;31849;55.992;37.252;2024-01-15T15:19:25;27.90;;;14.07;;
46110;SDS011;31849;55.992;37.252;2024-01-15T15:24:30;25.02;;;13.23;;
46110;SDS011;31849;55.992;37.252;2024-01-15T15:29:35;23.67;;;12.93;;
46110;SDS011;31849;55.992;37.252;2024-01-15T15:34:39;21.63;;;12.07;;
46110;SDS011;31849;55.992;37.252;2024-01-15T15:39:44;24.00;;;13.33;;
46110;SDS011;31849;55.992;37.252;2024-01-15T15:44:48;22.67;;;12.65;;
46110;SDS011;31849;55.992;37.252;2024-01-15T15:49:57;25.15;;;13.45;;
46110;SDS011;31849;55.992;37.252;2024-01-15T15:55:04;22.33;;;12.25;;
46110;SDS011;31849;55.992;37.252;2024-01-15T16:00:11;22.45;;;12.75;;
46110;SDS011;31849;55.992;37.252;2024-01-15T16:05:15;24.92;;;13.38;;
46110;SDS011;31849;55.992;37.252;2024-01-15T16:10:20;24.40;;;13.30;;
46110;SDS011;31849;55.992;37.252;2024-01-15T16:15:24;21.63;;;12.00;;
46110;SDS011;31849;55.992;37.252;2024-01-15T16:20:29;24.77;;;14.40;;
46110;SDS011;31849;55.992;37.252;2024-01-15T16:25:55;25.27;;;13.73;;
46110;SDS011;31849;55.992;37.252;2024-01-15T16:31:00;22.77;;;13.00;;
46110;SDS011;31849;55.992;37.252;2024-01-15T16:36:09;24.48;;;12.60;;
46110;SDS011;31849;55.992;37.252;2024-01-15T16:41:14;23.23;;;12.97;;
46110;SDS011;31849;55.992;37.252;2024-01-15T16:46:18;23.08;;;13.88;;
46110;SDS011;31849;55.992;37.252;2024-01-15T16:51:22;25.75;;;14.15;;
46110;SDS011;31849;55.992;37.252;2024-01-15T16:56:27;27.23;;;15.40;;
46110;SDS011;31849;55.992;37.252;2024-01-15T17:01:31;27.38;;;14.35;;
46110;SDS011;31849;55.992;37.252;2024-01-15T17:06:35;22.93;;;14.10;;
46110;SDS011;31849;55.992;37.252;2024-01-15T17:11:40;25.20;;;13.25;;
46110;SDS011;31849;55.992;37.252;2024-01-15T17:16:44;25.23;;;13.55;;
46110;SDS011;31849;55.992;37.252;2024-01-15T17:32:00;24.95;;;13.77;;
46110;SDS011;31849;55.992;37.252;2024-01-15T17:37:03;24.35;;;13.57;;
46110;SDS011;31849;55.992;37.252;2024-01-15T17:42:09;24.63;;;12.68;;
46110;SDS011;31849;55.992;37.252;2024-01-15T17:47:12;26.70;;;13.38;;
46110;SDS011;31849;55.992;37.252;2024-01-15T17:52:17;22.67;;;13.37;;
46110;SDS011;31849;55.992;37.252;2024-01-15T17:57:24;27.05;;;14.02;;
46110;SDS011;31849;55.992;37.252;2024-01-15T18:02:27;23.45;;;13.48;;
46110;SDS011;31849;55.992;37.252;2024-01-15T18:07:32;26.80;;;15.32;;
46110;SDS011;31849;55.992;37.252;2024-01-15T18:12:38;23.87;;;13.27;;
46110;SDS011;31849;55.992;37.252;2024-01-15T18:17:42;26.73;;;13.90;;
46110;SDS011;31849;55.992;37.252;2024-01-15T18:22:46;26.77;;;14.83;;
46110;SDS011;31849;55.992;37.252;2024-01-15T18:27:53;24.65;;;12.35;;
46110;SDS011;31849;55.992;37.252;2024-01-15T18:32:57;24.75;;;14.38;;
46110;SDS011;31849;55.992;37.252;2024-01-15T18:38:01;26.02;;;13.50;;
46110;SDS011;31849;55.992;37.252;2024-01-15T18:43:07;25.52;;;13.50;;
46110;SDS011;31849;55.992;37.252;2024-01-15T18:48:11;28.10;;;15.02;;
46110;SDS011;31849;55.992;37.252;2024-01-15T18:53:15;24.37;;;12.47;;
46110;SDS011;31849;55.992;37.252;2024-01-15T18:58:20;22.85;;;12.85;;
46110;SDS011;31849;55.992;37.252;2024-01-15T19:03:24;23.95;;;13.95;;
46110;SDS011;31849;55.992;37.252;2024-01-15T19:08:27;25.48;;;13.48;;
46110;SDS011;31849;55.992;37.252;2024-01-15T19:13:33;24.47;;;12.67;;
46110;SDS011;31849;55.992;37.252;2024-01-15T19:18:37;22.95;;;13.18;;
46110;SDS011;31849;55.992;37.252;2024-01-15T19:23:41;22.58;;;12.38;;
46110;SDS011;31849;55.992;37.252;2024-01-15T19:28:46;20.98;;;10.98;;
46110;SDS011;31849;55.992;37.252;2024-01-15T19:33:50;23.27;;;13.73;;
46110;SDS011;31849;55.992;37.252;2024-01-15T19:38:54;24.90;;;13.63;;
46110;SDS011;31849;55.992;37.252;2024-01-15T19:43:59;23.55;;;13.68;;
46110;SDS011;31849;55.992;37.252;2024-01-15T19:49:03;24.38;;;13.15;;
46110;SDS011;31849;55.992;37.252;2024-01-15T19:54:07;25.80;;;13.80;;
46110;SDS011;31849;55.992;37.252;2024-01-15T19:59:12;24.27;;;14.10;;
46110;SDS011;31849;55.992;37.252;2024-01-15T20:04:16;24.95;;;13.15;;
46110;SDS011;31849;55.992;37.252;2024-01-15T20:09:19;23.13;;;12.20;;
46110;SDS011;31849;55.992;37.252;2024-01-15T20:14:24;26.43;;;14.43;;
46110;SDS011;31849;55.992;37.252;2024-01-15T20:19:30;25.80;;;13.93;;
46110;SDS011;31849;55.992;37.252;2024-01-15T20:29:39;23.70;;;13.45;;
46110;SDS011;31849;55.992;37.252;2024-01-15T20:34:43;28.45;;;14.85;;
46110;SDS011;31849;55.992;37.252;2024-01-15T20:39:47;28.15;;;14.35;;
46110;SDS011;31849;55.992;37.252;2024-01-15T20:44:52;25.33;;;14.13;;
46110;SDS011;31849;55.992;37.252;2024-01-15T20:49:56;28.08;;;15.52;;
46110;SDS011;31849;55.992;37.252;2024-01-15T20:55:00;27.07;;;14.77;;
46110;SDS011;31849;55.992;37.252;2024-01-15T21:00:06;23.65;;;13.63;;
46110;SDS011;31849;55.992;37.252;2024-01-15T21:05:11;25.02;;;14.30;;
46110;SDS011;31849;55.992;37.252;2024-01-15T21:10:15;29.40;;;16.13;;
46110;SDS011;31849;55.992;37.252;2024-01-15T21:15:21;25.90;;;14.05;;
46110;SDS011;31849;55.992;37.252;2024-01-15T21:20:25;25.02;;;14.18;;
46110;SDS011;31849;55.992;37.252;2024-01-15T21:25:29;25.95;;;13.55;;
46110;SDS011;31849;55.992;37.252;2024-01-15T21:30:35;28.60;;;14.83;;
46110;SDS011;31849;55.992;37.252;2024-01-15T21:35:38;26.33;;;14.20;;
46110;SDS011;31849;55.992;37.252;2024-01-15T21:40:43;24.65;;;12.63;;
46110;SDS011;31849;55.992;37.252;2024-01-15T21:45:48;26.17;;;15.13;;
46110;SDS011;31849;55.992;37.252;2024-01-15T21:50:51;26.50;;;14.80;;
46110;SDS011;31849;55.992;37.252;2024-01-15T21:55:55;26.27;;;14.52;;
46110;SDS011;31849;55.992;37.252;2024-01-15T22:01:00;21.23;;;11.68;;
46110;SDS011;31849;55.992;37.252;2024-01-15T22:06:04;26.80;;;14.50;;
46110;SDS011;31849;55.992;37.252;2024-01-15T22:11:09;20.67;;;12.50;;
46110;SDS011;31849;55.992;37.252;2024-01-15T22:16:14;22.00;;;13.13;;
46110;SDS011;31849;55.992;37.252;2024-01-15T22:21:17;22.95;;;12.63;;
46110;SDS011;31849;55.992;37.252;2024-01-15T22:26:21;24.15;;;12.20;;
46110;SDS011;31849;55.992;37.252;2024-01-15T22:31:26;19.25;;;11.40;;
46110;SDS011;31849;55.992;37.252;2024-01-15T22:36:30;22.95;;;13.60;;
46110;SDS011;31849;55.992;37.252;2024-01-15T22:41:34;21.90;;;13.50;;
46110;SDS011;31849;55.992;37.252;2024-01-15T22:46:40;28.53;;;15.23;;
46110;SDS011;31849;55.992;37.252;2024-01-15T22:51:43;26.05;;;14.65;;
46110;SDS011;31849;55.992;37.252;2024-01-15T22:56:47;23.52;;;13.80;;
46110;SDS011;31849;55.992;37.252;2024-01-15T23:01:52;25.05;;;14.40;;
46110;SDS011;31849;55.992;37.252;2024-01-15T23:06:56;21.80;;;12.65;;
46110;SDS011;31849;55.992;37.252;2024-01-15T23:12:00;22.73;;;13.25;;
46110;SDS011;31849;55.992;37.252;2024-01-15T23:17:05;22.53;;;13.20;;
46110;SDS011;31849;55.992;37.252;2024-01-15T23:22:09;23.45;;;14.05;;
46110;SDS011;31849;55.992;37.252;2024-01-15T23:32:19;20.25;;;11.65;;
46110;SDS011;31849;55.992;37.252;2024-01-15T23:37:22;20.25;;;11.82;;
46110;SDS011;31849;55.992;37.252;2024-01-15T23:42:26;21.08;;;11.85;;
46110;SDS011;31849;55.992;37.252;2024-01-15T23:47:31;19.60;;;11.03;;
46110;SDS011;31849;55.992;37.252;2024-01-15T23:52:36;18.85;;;10.85;;
46110;SDS011;31849;55.992;37.252;2024-01-15T23:57:39;22.65;;;12.45;;
